createdAt,value
2022-09-18T00:05:54.323Z,17.6
2022-09-18T00:10:52.671Z,17.5
2022-09-18T00:15:50.563Z,17.4
2022-09-18T00:20:48.537Z,17.2
2022-09-18T00:25:46.682Z,17.4
2022-09-18T00:30:44.945Z,17.5
2022-09-18T00:35:43.094Z,17.5
2022-09-18T00:40:41.152Z,17.3
2022-09-18T00:45:39.302Z,17.3
2022-09-18T00:50:37.764Z,17.5
2022-09-18T00:55:35.820Z,17.6
2022-09-18T01:00:33.710Z,17.1
2022-09-18T01:05:31.203Z,16.2
2022-09-18T01:10:29.165Z,15.8
2022-09-18T01:15:26.862Z,15.6
2022-09-18T01:20:24.658Z,15.3
2022-09-18T01:25:22.812Z,15.3
2022-09-18T01:30:21.427Z,15.5
2022-09-18T01:35:39.814Z,15.3
2022-09-18T01:40:17.723Z,15.2
2022-09-18T01:45:15.498Z,14.9
2022-09-18T01:50:13.421Z,14.6
2022-09-18T01:55:11.142Z,14.3
2022-09-18T02:00:09.145Z,14
2022-09-18T02:05:07.048Z,13.5
2022-09-18T02:10:05.093Z,13.5
2022-09-18T02:15:02.933Z,13.3
2022-09-18T02:20:00.523Z,12.8
2022-09-18T02:24:58.465Z,12.5
2022-09-18T02:29:56.488Z,12.2
2022-09-18T02:34:54.211Z,12.1
2022-09-18T02:39:52.066Z,11.6
2022-09-18T02:44:49.834Z,11.4
2022-09-18T02:49:47.985Z,11.1
2022-09-18T02:54:45.924Z,11
2022-09-18T02:59:44.045Z,10.7
2022-09-18T03:04:41.973Z,10.5
2022-09-18T03:09:40.126Z,10.3
2022-09-18T03:14:38.008Z,10.1
2022-09-18T03:19:36.188Z,10.1
2022-09-18T03:24:34.388Z,10
2022-09-18T03:29:32.241Z,9.4
2022-09-18T03:34:29.959Z,9.3
2022-09-18T03:39:27.896Z,9.2
2022-09-18T03:44:25.812Z,8.9
2022-09-18T03:49:24.005Z,9
2022-09-18T03:54:21.988Z,9.1
2022-09-18T03:59:20.401Z,9.2
2022-09-18T04:04:18.702Z,9.5
2022-09-18T04:09:17.121Z,9.4
2022-09-18T04:14:15.090Z,9.6
2022-09-18T04:19:13.229Z,9.5
2022-09-18T04:24:14.931Z,9.6
2022-09-18T04:29:12.314Z,9.6
2022-09-18T04:34:10.279Z,9.4
2022-09-18T04:39:08.614Z,9.4
2022-09-18T04:44:06.842Z,9.6
2022-09-18T04:49:05.059Z,9.4
2022-09-18T04:54:03.052Z,9.4
2022-09-18T04:59:01.184Z,9.4
2022-09-18T05:03:59.075Z,9.3
2022-09-18T05:08:57.042Z,9.1
2022-09-18T05:13:55.086Z,9.2
2022-09-18T05:18:53.319Z,9.2
2022-09-18T05:23:51.692Z,9.4
2022-09-18T05:28:50.367Z,10
2022-09-18T05:33:51.899Z,10.1
2022-09-18T05:38:49.856Z,11.1
2022-09-18T05:43:48.297Z,11.4
2022-09-18T05:48:46.521Z,11.6
2022-09-18T05:53:44.865Z,12.2
2022-09-18T05:58:43.349Z,12.2
2022-09-18T06:03:41.959Z,13.1
2022-09-18T06:08:40.656Z,13.1
2022-09-18T06:13:38.406Z,12.7
2022-09-18T06:18:36.110Z,12.1
2022-09-18T06:23:34.490Z,12.6
2022-09-18T06:28:32.733Z,12.3
2022-09-18T06:33:31.992Z,13.7
2022-09-18T06:38:29.359Z,12.7
2022-09-18T06:43:27.069Z,12.6
2022-09-18T06:48:25.817Z,14
2022-09-18T06:53:27.648Z,17.6
2022-09-18T06:58:26.988Z,19
2022-09-18T07:03:24.035Z,16.8
2022-09-18T07:08:20.774Z,14.9
2022-09-18T07:13:18.205Z,14.9
2022-09-18T07:18:16.481Z,14.8
2022-09-18T07:23:15.076Z,15
2022-09-18T07:28:13.723Z,16.4
2022-09-18T07:33:14.469Z,18.7
2022-09-18T07:38:16.719Z,20.4
2022-09-18T07:43:19.014Z,22.7
2022-09-18T07:48:15.563Z,22
2022-09-18T07:53:10.827Z,18.8
2022-09-18T07:58:08.046Z,18.3
2022-09-18T08:03:06.115Z,16.9
2022-09-18T08:08:02.878Z,16.7
2022-09-18T08:13:01.055Z,16.6
2022-09-18T08:17:59.547Z,18
2022-09-18T08:22:59.047Z,20.8
2022-09-18T08:27:58.429Z,21.6
2022-09-18T08:32:59.112Z,24.4
2022-09-18T08:37:56.617Z,22.8
2022-09-18T08:42:57.112Z,28.6
2022-09-18T08:47:56.520Z,27.2
2022-09-18T08:52:53.167Z,28.9
2022-09-18T08:57:54.177Z,28
2022-09-18T09:02:49.515Z,26.3
2022-09-18T09:07:45.888Z,23.9
2022-09-18T09:12:42.393Z,22.7
2022-09-18T09:17:39.674Z,21.7
2022-09-18T09:22:37.562Z,22
2022-09-18T09:27:36.380Z,22.7
2022-09-18T09:32:35.745Z,23.1
2022-09-18T09:37:33.852Z,20.8
2022-09-18T09:42:31.672Z,21.7
2022-09-18T09:47:30.149Z,22.5
2022-09-18T09:52:28.672Z,22.7
2022-09-18T09:57:27.163Z,22.7
2022-09-18T10:02:26.928Z,23.6
2022-09-18T10:07:27.086Z,26.9
2022-09-18T10:12:31.439Z,33.4
2022-09-18T10:17:29.153Z,32.3
2022-09-18T10:22:23.198Z,26.7
2022-09-18T10:27:24.327Z,29.7
2022-09-18T10:32:22.697Z,32.3
2022-09-18T10:37:24.116Z,35.1
2022-09-18T10:42:23.940Z,35
2022-09-18T10:47:17.825Z,29
2022-09-18T10:52:12.784Z,26.4
2022-09-18T10:57:10.131Z,25.5
2022-09-18T11:02:07.647Z,24.7
2022-09-18T11:07:05.803Z,24.6
2022-09-18T11:12:04.380Z,24.6
2022-09-18T11:17:02.528Z,24.6
2022-09-18T11:22:01.291Z,26.8
2022-09-18T11:27:02.448Z,29.5
2022-09-18T11:32:00.073Z,27
2022-09-18T11:36:56.901Z,26.2
2022-09-18T11:41:55.216Z,26.8
2022-09-18T11:46:53.036Z,25.3
2022-09-18T11:51:49.949Z,24
2022-09-18T11:56:47.969Z,23.7
2022-09-18T12:01:46.301Z,24.3
2022-09-18T12:06:44.572Z,23.8
2022-09-18T12:11:41.086Z,23.4
2022-09-18T12:16:39.627Z,23.1
2022-09-18T12:21:37.258Z,22.7
2022-09-18T12:26:35.955Z,24.3
2022-09-18T12:31:33.841Z,23.1
2022-09-18T12:36:30.895Z,21.7
2022-09-18T12:41:28.521Z,20.6
2022-09-18T12:46:26.458Z,21.3
2022-09-18T12:51:24.642Z,21
2022-09-18T12:56:22.551Z,21.6
2022-09-18T13:01:21.046Z,21.6
2022-09-18T13:06:19.214Z,21.7
2022-09-18T13:11:17.669Z,23
2022-09-18T13:16:17.403Z,23
2022-09-18T13:21:14.930Z,22
2022-09-18T13:26:12.417Z,20.9
2022-09-18T13:31:10.086Z,20.7
2022-09-18T13:36:08.710Z,20.6
2022-09-18T13:41:07.125Z,20.3
2022-09-18T13:46:07.383Z,21.2
2022-09-18T13:51:05.251Z,21.3
2022-09-18T13:56:03.918Z,21.7
2022-09-18T14:01:05.350Z,21.5
2022-09-18T14:06:03.704Z,21.5
2022-09-18T14:11:16.497Z,20.8
2022-09-18T14:15:59.448Z,20.4
2022-09-18T14:20:57.482Z,20.6
2022-09-18T14:25:55.554Z,20.2
2022-09-18T14:30:53.341Z,19.8
2022-09-18T14:35:51.093Z,18.8
2022-09-18T14:40:48.868Z,18.2
2022-09-18T14:45:46.619Z,17.8
2022-09-18T14:50:44.412Z,17.4
2022-09-18T14:55:42.249Z,16.1
2022-09-18T15:00:39.521Z,15.2
2022-09-18T15:05:37.245Z,14.7
2022-09-18T15:10:34.933Z,14.2
2022-09-18T15:15:32.871Z,13.9
2022-09-18T15:20:30.827Z,14.1
2022-09-18T15:25:30.447Z,14.5
2022-09-18T15:30:28.704Z,14.5
2022-09-18T15:35:27.039Z,14.3
2022-09-18T15:40:25.131Z,14.2
2022-09-18T15:45:23.129Z,13.9
2022-09-18T15:50:21.058Z,13.3
2022-09-18T15:55:19.334Z,12.8
2022-09-18T16:00:16.541Z,12.4
2022-09-18T16:05:14.672Z,12.3
2022-09-18T16:10:13.030Z,12.2
2022-09-18T16:15:11.330Z,12
2022-09-18T16:20:09.155Z,11.6
2022-09-18T16:25:06.942Z,10.9
2022-09-18T16:30:04.585Z,10.4
2022-09-18T16:35:02.331Z,9.6
2022-09-18T16:40:00.025Z,9
2022-09-18T16:44:57.776Z,8.5
2022-09-18T16:49:55.801Z,8.2
2022-09-18T16:54:53.765Z,7.9
2022-09-18T16:59:51.467Z,7.7
2022-09-18T17:04:49.467Z,7.2
2022-09-18T17:09:47.424Z,7.2
2022-09-18T17:14:45.721Z,6.8
2022-09-18T17:19:43.625Z,6.7
2022-09-18T17:24:41.727Z,6.6
2022-09-18T17:29:39.700Z,6.3
2022-09-18T17:34:38.079Z,6.2
2022-09-18T17:39:35.881Z,6.2
2022-09-18T17:44:33.825Z,6
2022-09-18T17:49:31.535Z,5.9
2022-09-18T17:54:29.722Z,5.8
2022-09-18T17:59:27.779Z,5.5
2022-09-18T18:04:26.103Z,5.4
2022-09-18T18:09:24.363Z,5.3
2022-09-18T18:14:22.677Z,5.4
2022-09-18T18:19:20.833Z,5.3
2022-09-18T18:24:18.906Z,5.2
2022-09-18T18:29:16.948Z,5.2
2022-09-18T18:34:15.265Z,5.2
2022-09-18T18:39:13.554Z,5.2
2022-09-18T18:44:11.926Z,5
2022-09-18T18:49:10.188Z,5
2022-09-18T18:54:09.010Z,5.2
2022-09-18T18:59:06.983Z,5.4
2022-09-18T19:04:05.324Z,5.4
2022-09-18T19:09:03.460Z,5.5
2022-09-18T19:14:01.895Z,5.5
2022-09-18T19:18:59.882Z,5.5
2022-09-18T19:23:58.235Z,5.5
2022-09-18T19:28:56.685Z,5.4
2022-09-18T19:33:54.974Z,5.2
2022-09-18T19:38:52.939Z,5
2022-09-18T19:43:51.140Z,4.9
2022-09-18T19:48:49.392Z,4.8
2022-09-18T19:53:47.695Z,4.7
2022-09-18T19:58:45.940Z,4.7
2022-09-18T20:03:44.144Z,4.5
2022-09-18T20:08:42.253Z,4.5
2022-09-18T20:13:40.601Z,4.3
2022-09-18T20:18:38.585Z,4.5
2022-09-18T20:23:36.851Z,4.4
2022-09-18T20:28:34.824Z,4.3
2022-09-18T20:33:33.116Z,4.2
2022-09-18T20:38:31.146Z,4.2
2022-09-18T20:43:29.268Z,4.1
2022-09-18T20:48:27.305Z,4
2022-09-18T20:53:25.569Z,4
2022-09-18T20:58:23.677Z,4
2022-09-18T21:03:22.034Z,3.9
2022-09-18T21:08:20.310Z,3.8
2022-09-18T21:13:18.689Z,3.7
2022-09-18T21:18:16.566Z,3.6
2022-09-18T21:23:14.838Z,3.8
2022-09-18T21:28:13.044Z,3.5
2022-09-18T21:33:11.382Z,3.7
2022-09-18T21:38:12.742Z,3.6
2022-09-18T21:43:11.031Z,3.6
2022-09-18T21:48:08.461Z,3.5
2022-09-18T21:53:06.695Z,3.4
2022-09-18T21:58:04.562Z,3.5
2022-09-18T22:03:02.631Z,3.3
2022-09-18T22:08:00.530Z,3.3
2022-09-18T22:12:58.687Z,3.3
2022-09-18T22:17:56.745Z,3.2
2022-09-18T22:22:54.892Z,3.1
2022-09-18T22:27:53.125Z,3.1
2022-09-18T22:32:51.323Z,3.1
2022-09-18T22:37:49.415Z,3
2022-09-18T22:42:47.568Z,2.8
2022-09-18T22:47:45.666Z,2.8
2022-09-18T22:52:44.419Z,2.8
2022-09-18T22:57:42.270Z,3
2022-09-18T23:02:40.537Z,3
2022-09-18T23:07:38.660Z,2.8
2022-09-18T23:12:36.951Z,2.8
2022-09-18T23:17:35.021Z,2.7
2022-09-18T23:22:33.142Z,2.7
2022-09-18T23:27:31.168Z,2.7
2022-09-18T23:32:29.371Z,2.6
2022-09-18T23:37:27.321Z,2.7
2022-09-18T23:42:25.517Z,2.7
2022-09-18T23:47:23.708Z,2.7
2022-09-18T23:52:22.065Z,2.6
2022-09-18T23:57:19.951Z,2.5
